Time;durP1;ratioP1;P1;durP2;ratioP2;P2;SDS_P1;SDS_P2;PMS_P1;PMS_P2;Temp;Humidity;BMP_temperature;BMP_pressure;BME280_temperature;BME280_humidity;BME280_pressure;Samples;Min_cycle;Max_cycle;Signal;HPM_P1;HPM_P2
2023/02/28 00:00:24;;;;;;;7.30;4.88;;;-0.60;67.90;;;;;;5028956;28;20269;-73
2023/02/28 00:02:50;;;;;;;6.07;3.47;;;-0.60;68.00;;;;;;5046266;28;20275;-75
2023/02/28 00:05:18;;;;;;;11.80;5.13;;;-0.60;68.50;;;;;;5033625;28;20192;-76
2023/02/28 00:07:45;;;;;;;7.20;4.45;;;-0.70;68.60;;;;;;5028094;28;20220;-75
2023/02/28 00:10:13;;;;;;;5.97;4.20;;;-0.70;68.60;;;;;;5050002;28;20240;-75
2023/02/28 00:12:39;;;;;;;10.05;3.75;;;-0.70;68.60;;;;;;5052479;28;20208;-76
2023/02/28 00:15:10;;;;;;;6.17;3.33;;;-0.70;68.80;;;;;;5035375;28;20196;-73
2023/02/28 00:17:36;;;;;;;6.15;3.95;;;-0.70;69.10;;;;;;5032354;28;20474;-75
2023/02/28 00:20:04;;;;;;;6.78;4.32;;;-0.70;69.10;;;;;;5050388;28;20189;-72
2023/02/28 00:22:30;;;;;;;5.88;3.95;;;-0.70;69.10;;;;;;5047771;28;20177;-73
2023/02/28 00:24:56;;;;;;;7.85;4.20;;;-0.70;69.20;;;;;;5032499;28;20192;-72
2023/02/28 00:27:21;;;;;;;10.03;4.07;;;-0.80;69.40;;;;;;5031035;28;20219;-74
2023/02/28 00:29:47;;;;;;;7.20;3.70;;;-0.80;69.20;;;;;;5051786;28;20193;-73
2023/02/28 00:32:13;;;;;;;9.20;4.23;;;-0.70;69.50;;;;;;5032029;28;20427;-73
2023/02/28 00:34:39;;;;;;;9.10;4.00;;;-0.70;69.40;;;;;;5053398;28;20188;-74
2023/02/28 00:37:11;;;;;;;7.03;4.30;;;-0.70;69.40;;;;;;5038154;28;20290;-73
2023/02/28 00:39:38;;;;;;;4.60;3.42;;;-0.70;69.10;;;;;;5028754;28;20272;-73
2023/02/28 00:42:05;;;;;;;6.15;3.58;;;-0.70;69.20;;;;;;5046133;28;20636;-75
2023/02/28 00:44:31;;;;;;;6.05;3.60;;;-0.70;69.40;;;;;;5049928;28;20539;-73
2023/02/28 00:46:58;;;;;;;5.85;3.83;;;-0.70;69.20;;;;;;5040322;28;20674;-75
2023/02/28 00:49:25;;;;;;;5.78;3.92;;;-0.70;69.50;;;;;;5049196;28;20195;-73
2023/02/28 00:51:50;;;;;;;8.50;4.00;;;-0.70;69.50;;;;;;5044250;28;20185;-74
2023/02/28 00:54:16;;;;;;;7.00;4.57;;;-0.80;69.70;;;;;;5048236;28;20242;-75
2023/02/28 00:56:42;;;;;;;5.83;3.47;;;-0.70;69.80;;;;;;5038475;28;20209;-74
2023/02/28 00:59:08;;;;;;;8.70;4.03;;;-0.80;69.90;;;;;;5055144;28;20425;-75
2023/02/28 01:01:34;;;;;;;5.80;3.27;;;-0.80;69.90;;;;;;5027609;28;20560;-75
2023/02/28 01:04:00;;;;;;;5.90;4.20;;;-0.70;70.10;;;;;;5053864;28;20185;-75
2023/02/28 01:06:25;;;;;;;7.33;4.23;;;-0.70;70.10;;;;;;5028283;28;20221;-74
2023/02/28 01:08:51;;;;;;;6.47;3.33;;;-0.80;70.20;;;;;;5053318;28;20196;-75
2023/02/28 01:11:18;;;;;;;5.00;3.83;;;-0.80;70.50;;;;;;5027419;28;20249;-75
2023/02/28 01:13:45;;;;;;;5.20;3.50;;;-0.80;70.80;;;;;;5052861;28;20205;-75
2023/02/28 01:16:11;;;;;;;5.45;3.65;;;-0.80;70.80;;;;;;5047766;28;20278;-74
2023/02/28 01:18:38;;;;;;;5.93;3.53;;;-0.80;71.00;;;;;;5034379;28;20652;-75
2023/02/28 01:21:10;;;;;;;6.82;4.28;;;-0.80;70.80;;;;;;5029594;28;20248;-74
2023/02/28 01:23:35;;;;;;;6.15;3.83;;;-0.80;71.00;;;;;;5051723;28;20216;-74
2023/02/28 01:26:09;;;;;;;6.00;3.80;;;-0.80;71.10;;;;;;5044767;28;20264;-74
2023/02/28 01:28:35;;;;;;;9.85;4.22;;;-0.80;71.30;;;;;;5033508;28;20543;-73
2023/02/28 01:31:01;;;;;;;7.30;4.70;;;-0.90;71.40;;;;;;5032085;28;20334;-75
2023/02/28 01:33:26;;;;;;;5.95;4.13;;;-0.80;71.70;;;;;;5029534;28;20180;-74
2023/02/28 01:36:04;;;;;;;4.90;3.50;;;-0.90;71.80;;;;;;5044353;28;20699;-74
2023/02/28 01:38:30;;;;;;;4.25;3.50;;;-0.90;71.80;;;;;;5046810;28;20242;-76
2023/02/28 01:40:56;;;;;;;8.90;4.50;;;-0.80;72.00;;;;;;5030697;28;20184;-74
2023/02/28 01:43:28;;;;;;;6.82;3.92;;;-0.80;72.10;;;;;;5051284;28;20184;-73
2023/02/28 01:45:55;;;;;;;7.40;4.05;;;-0.90;72.10;;;;;;5047030;28;20236;-74
2023/02/28 01:48:26;;;;;;;7.50;4.10;;;-0.90;72.40;;;;;;5027571;28;20247;-74
2023/02/28 01:50:52;;;;;;;6.03;4.43;;;-0.90;72.40;;;;;;5052621;28;20252;-74
2023/02/28 01:53:26;;;;;;;8.02;4.05;;;-0.90;72.70;;;;;;5050331;28;20559;-74
2023/02/28 01:55:53;;;;;;;10.30;5.05;;;-0.90;72.90;;;;;;5047589;28;20205;-74
2023/02/28 01:58:19;;;;;;;6.40;4.30;;;-0.90;73.00;;;;;;5050442;28;20212;-74
2023/02/28 02:00:46;;;;;;;8.27;4.38;;;-0.90;73.20;;;;;;5052300;28;20660;-73
2023/02/28 02:03:14;;;;;;;7.43;4.72;;;-1.00;73.30;;;;;;5050789;28;20191;-75
2023/02/28 02:05:41;;;;;;;8.30;4.88;;;-1.00;73.60;;;;;;5043269;28;20201;-75
2023/02/28 02:08:13;;;;;;;7.90;4.50;;;-1.00;73.90;;;;;;5048719;28;20184;-75
2023/02/28 02:10:46;;;;;;;8.55;4.88;;;-1.10;74.00;;;;;;5051157;28;20635;-76
2023/02/28 02:13:26;;;;;;;7.47;4.95;;;-1.20;74.30;;;;;;5033770;28;20250;-74
2023/02/28 02:16:01;;;;;;;6.55;4.40;;;-1.20;74.80;;;;;;5044988;28;20563;-74
2023/02/28 02:18:38;;;;;;;14.38;4.75;;;-1.20;74.80;;;;;;5033276;28;20200;-75
2023/02/28 02:21:09;;;;;;;6.45;4.95;;;-1.20;74.90;;;;;;5053170;28;20188;-75
2023/02/28 02:24:09;;;;;;;7.07;4.82;;;-1.10;74.90;;;;;;5056089;28;20184;-72
2023/02/28 02:26:51;;;;;;;9.30;4.47;;;-1.20;75.10;;;;;;5043893;28;20216;-73
2023/02/28 02:29:34;;;;;;;5.72;4.38;;;-1.20;75.20;;;;;;5041774;28;20193;-72
2023/02/28 02:32:19;;;;;;;10.90;5.43;;;-1.20;75.50;;;;;;5026822;28;20197;-75
2023/02/28 02:35:05;;;;;;;10.07;5.15;;;-1.10;75.50;;;;;;5021110;28;20184;-75
2023/02/28 02:37:38;;;;;;;6.25;4.65;;;-1.00;75.40;;;;;;5032911;28;20216;-75
2023/02/28 02:40:12;;;;;;;10.32;6.10;;;-1.00;75.40;;;;;;5045159;28;20951;-74
2023/02/28 02:42:52;;;;;;;11.45;5.30;;;-1.10;75.40;;;;;;5049812;28;20338;-75
2023/02/28 02:45:36;;;;;;;6.70;4.70;;;-1.00;75.70;;;;;;5046585;28;20602;-74
2023/02/28 02:48:06;;;;;;;7.13;4.60;;;-1.00;75.70;;;;;;5028392;28;20193;-74
2023/02/28 02:50:46;;;;;;;9.80;5.13;;;-0.90;75.50;;;;;;5045321;28;20214;-76
2023/02/28 02:53:17;;;;;;;6.30;4.75;;;-0.90;75.50;;;;;;5050593;28;20203;-74
2023/02/28 02:55:47;;;;;;;8.07;5.43;;;-0.90;75.50;;;;;;5047798;28;20238;-74
2023/02/28 02:58:16;;;;;;;9.45;4.90;;;-0.90;75.50;;;;;;5047220;28;20212;-75
2023/02/28 03:00:47;;;;;;;8.35;5.50;;;-0.90;75.80;;;;;;5048739;28;20188;-75
2023/02/28 03:03:17;;;;;;;11.57;6.20;;;-0.90;75.80;;;;;;5041716;28;20286;-75
2023/02/28 03:05:47;;;;;;;9.05;5.50;;;-0.90;75.90;;;;;;5041994;28;20204;-75
2023/02/28 03:08:13;;;;;;;11.32;6.38;;;-0.90;75.90;;;;;;5026600;28;20184;-74
2023/02/28 03:10:42;;;;;;;10.10;5.87;;;-0.90;76.20;;;;;;5031106;28;20670;-74
2023/02/28 03:13:15;;;;;;;8.65;5.60;;;-0.90;76.20;;;;;;5048792;28;20299;-76
2023/02/28 03:16:03;;;;;;;10.00;6.10;;;-0.80;76.20;;;;;;5039697;28;20261;-74
2023/02/28 03:18:34;;;;;;;13.68;5.32;;;-0.80;76.20;;;;;;5049286;28;20205;-75
2023/02/28 03:21:23;;;;;;;9.52;5.50;;;-0.80;76.40;;;;;;5040430;28;20204;-74
2023/02/28 03:24:02;;;;;;;12.13;5.88;;;-0.80;76.40;;;;;;5049661;28;20177;-74
2023/02/28 03:26:29;;;;;;;8.43;5.85;;;-0.80;76.40;;;;;;5052132;28;20287;-74
2023/02/28 03:29:01;;;;;;;9.52;5.65;;;-0.80;76.50;;;;;;5036942;28;20189;-73
2023/02/28 03:31:38;;;;;;;8.70;5.00;;;-0.80;76.70;;;;;;5049964;28;20548;-73
2023/02/28 03:34:07;;;;;;;9.20;5.97;;;-0.80;76.70;;;;;;5048726;28;20215;-74
2023/02/28 03:36:43;;;;;;;10.40;5.85;;;-0.80;76.70;;;;;;5043689;28;20227;-72
2023/02/28 03:39:30;;;;;;;8.00;5.03;;;-0.80;76.80;;;;;;5035378;28;20604;-74
2023/02/28 03:42:04;;;;;;;9.30;5.80;;;-0.80;76.80;;;;;;5050977;28;20922;-73
2023/02/28 03:44:34;;;;;;;8.93;6.10;;;-0.80;77.00;;;;;;5058305;28;20256;-72
2023/02/28 03:47:14;;;;;;;12.75;6.15;;;-0.80;77.00;;;;;;5056548;28;20232;-73
2023/02/28 03:49:49;;;;;;;10.57;5.28;;;-0.90;77.10;;;;;;5056033;28;20184;-73
2023/02/28 03:52:17;;;;;;;8.35;5.30;;;-0.90;77.30;;;;;;5034804;28;20207;-74
2023/02/28 03:54:47;;;;;;;9.95;5.28;;;-0.90;77.10;;;;;;5048928;28;20188;-73
2023/02/28 03:57:25;;;;;;;10.23;5.68;;;-0.80;77.30;;;;;;5052136;28;20200;-74
2023/02/28 03:59:56;;;;;;;9.30;5.63;;;-0.80;77.30;;;;;;5044680;28;20557;-74
2023/02/28 04:02:22;;;;;;;9.95;5.90;;;-0.80;77.10;;;;;;5056362;28;20191;-73
2023/02/28 04:04:48;;;;;;;9.13;5.33;;;-0.80;77.10;;;;;;5052492;28;20180;-74
2023/02/28 04:07:14;;;;;;;9.30;5.83;;;-0.70;77.30;;;;;;5044125;28;20718;-76
2023/02/28 04:09:40;;;;;;;10.52;5.60;;;-0.70;77.30;;;;;;5043115;28;20431;-75
2023/02/28 04:12:05;;;;;;;10.33;5.90;;;-0.70;77.30;;;;;;5045604;28;20192;-73
2023/02/28 04:14:31;;;;;;;11.80;6.13;;;-0.70;77.30;;;;;;5045474;28;20423;-76
2023/02/28 04:16:57;;;;;;;9.60;5.73;;;-0.70;77.30;;;;;;5043244;28;20212;-75
2023/02/28 04:19:22;;;;;;;8.93;6.00;;;-0.70;77.30;;;;;;5048802;28;20246;-75
2023/02/28 04:21:52;;;;;;;11.07;6.27;;;-0.70;77.30;;;;;;5049002;28;20187;-75
2023/02/28 04:24:21;;;;;;;11.93;6.13;;;-0.70;77.30;;;;;;5047983;28;20418;-73
2023/02/28 04:26:52;;;;;;;14.27;6.10;;;-0.80;77.30;;;;;;5041199;28;20592;-73
2023/02/28 04:29:26;;;;;;;11.85;6.38;;;-0.80;77.40;;;;;;5046082;28;20190;-74
2023/02/28 04:31:58;;;;;;;9.48;5.93;;;-0.70;77.40;;;;;;5045734;28;20208;-74
2023/02/28 04:34:29;;;;;;;11.32;6.35;;;-0.70;77.40;;;;;;5051387;28;20188;-74
2023/02/28 04:36:55;;;;;;;9.63;5.90;;;-0.60;77.40;;;;;;5045336;28;20200;-74
2023/02/28 04:39:21;;;;;;;11.43;6.57;;;-0.60;77.40;;;;;;5051564;28;20254;-73
2023/02/28 04:41:47;;;;;;;16.17;6.22;;;-0.60;77.30;;;;;;5047577;28;20177;-73
2023/02/28 04:44:14;;;;;;;10.53;5.93;;;-0.60;77.30;;;;;;5052171;28;20196;-75
2023/02/28 04:46:39;;;;;;;9.52;6.13;;;-0.60;77.30;;;;;;5046705;28;20463;-74
2023/02/28 04:49:05;;;;;;;14.57;6.30;;;-0.70;77.30;;;;;;5052481;28;20564;-74
2023/02/28 04:51:31;;;;;;;9.30;6.37;;;-0.70;77.40;;;;;;5026521;28;20181;-72
2023/02/28 04:53:56;;;;;;;11.33;6.43;;;-0.70;77.40;;;;;;5054916;28;20188;-74
2023/02/28 04:56:22;;;;;;;10.40;6.37;;;-0.70;77.40;;;;;;5051247;28;20512;-74
2023/02/28 04:58:49;;;;;;;10.27;5.93;;;-0.70;77.60;;;;;;5051308;28;20181;-74
2023/02/28 05:01:36;;;;;;;14.50;6.85;;;-0.70;77.40;;;;;;5049718;28;20434;-74
2023/02/28 05:04:03;;;;;;;11.93;5.68;;;-0.70;77.40;;;;;;5051306;28;20268;-75
2023/02/28 05:06:30;;;;;;;10.50;6.00;;;-0.60;77.60;;;;;;5049092;28;20386;-75
2023/02/28 05:08:56;;;;;;;13.48;6.68;;;-0.60;77.60;;;;;;5054433;28;20189;-74
2023/02/28 05:11:35;;;;;;;10.90;7.10;;;-0.60;77.40;;;;;;5034796;28;20242;-76
2023/02/28 05:14:09;;;;;;;12.48;5.93;;;-0.60;77.60;;;;;;5049046;28;20497;-73
2023/02/28 05:16:34;;;;;;;14.13;6.65;;;-0.50;77.40;;;;;;5044172;28;20221;-74
2023/02/28 05:19:00;;;;;;;16.73;5.83;;;-0.50;77.30;;;;;;5053685;28;20266;-74
2023/02/28 05:21:35;;;;;;;17.50;8.00;;;-0.50;77.30;;;;;;5035884;28;20200;-74
2023/02/28 05:24:03;;;;;;;10.48;6.50;;;-0.50;77.10;;;;;;5051737;28;20173;-74
2023/02/28 05:26:29;;;;;;;11.77;7.13;;;-0.50;77.30;;;;;;5048925;28;20628;-74
2023/02/28 05:28:55;;;;;;;9.75;6.78;;;-0.50;77.30;;;;;;5051646;28;20189;-75
2023/02/28 05:31:21;;;;;;;10.68;6.25;;;-0.50;77.30;;;;;;5053023;28;20246;-75
2023/02/28 05:33:47;;;;;;;18.42;6.78;;;-0.50;77.30;;;;;;5048206;28;20181;-72
2023/02/28 05:36:13;;;;;;;10.60;5.40;;;-0.50;77.30;;;;;;5042568;28;20201;-74
2023/02/28 05:38:39;;;;;;;12.83;6.10;;;-0.50;77.40;;;;;;5032691;28;20524;-74
2023/02/28 05:41:09;;;;;;;11.37;7.07;;;-0.50;77.60;;;;;;5047178;28;20197;-74
2023/02/28 05:43:36;;;;;;;11.90;6.78;;;-0.50;77.60;;;;;;5050537;28;20188;-73
2023/02/28 05:46:06;;;;;;;13.27;6.55;;;-0.50;77.60;;;;;;5047092;28;20205;-75
2023/02/28 05:48:34;;;;;;;12.10;6.55;;;-0.50;77.60;;;;;;5051779;28;20548;-74
2023/02/28 05:51:00;;;;;;;13.05;7.10;;;-0.50;77.60;;;;;;5047534;28;20195;-75
2023/02/28 05:53:26;;;;;;;15.37;7.50;;;-0.50;77.60;;;;;;5047742;28;20183;-78
2023/02/28 05:55:52;;;;;;;13.70;7.73;;;-0.50;77.40;;;;;;5055689;28;20447;-78
2023/02/28 05:58:18;;;;;;;13.73;7.20;;;-0.40;77.80;;;;;;5054715;28;20200;-79
2023/02/28 06:00:44;;;;;;;19.38;8.32;;;-0.30;77.60;;;;;;5055112;28;20415;-78
2023/02/28 06:03:09;;;;;;;17.40;7.30;;;-0.30;77.40;;;;;;5052848;28;20777;-77
2023/02/28 06:05:35;;;;;;;10.83;7.20;;;-0.20;77.30;;;;;;5050830;28;20327;-76
2023/02/28 06:08:00;;;;;;;12.80;7.20;;;-0.20;77.10;;;;;;5050190;28;20184;-77
2023/02/28 06:10:26;;;;;;;21.00;8.07;;;-0.30;77.10;;;;;;5050520;28;20267;-76
2023/02/28 06:12:51;;;;;;;13.77;6.80;;;-0.30;77.40;;;;;;5048645;28;20196;-75
2023/02/28 06:15:17;;;;;;;13.00;7.33;;;-0.30;77.40;;;;;;5049980;28;20282;-74
2023/02/28 06:17:43;;;;;;;13.50;7.50;;;-0.20;77.40;;;;;;5029968;28;20212;-73
2023/02/28 06:20:12;;;;;;;13.38;6.82;;;-0.20;77.30;;;;;;5047752;28;20181;-74
2023/02/28 06:22:38;;;;;;;18.65;7.45;;;-0.30;77.30;;;;;;5030360;28;20183;-73
2023/02/28 06:25:05;;;;;;;15.52;7.93;;;-0.30;77.40;;;;;;5032886;28;20184;-75
2023/02/28 06:27:32;;;;;;;15.30;7.30;;;-0.30;77.30;;;;;;5043440;28;20212;-74
2023/02/28 06:29:58;;;;;;;14.38;7.22;;;-0.30;77.40;;;;;;5026706;28;20184;-74
2023/02/28 06:32:24;;;;;;;13.37;7.80;;;-0.30;77.40;;;;;;5045498;28;20906;-75
2023/02/28 06:34:50;;;;;;;19.73;7.37;;;-0.30;77.40;;;;;;5049625;28;20570;-75
2023/02/28 06:37:16;;;;;;;12.48;6.20;;;-0.30;77.40;;;;;;5038169;28;20204;-74
2023/02/28 06:39:42;;;;;;;14.43;7.30;;;-0.30;77.30;;;;;;5044403;28;20212;-75
2023/02/28 06:42:08;;;;;;;14.23;7.30;;;-0.40;77.40;;;;;;5050459;28;20664;-75
2023/02/28 06:44:34;;;;;;;19.60;8.07;;;-0.40;77.60;;;;;;5051464;28;20616;-76
2023/02/28 06:47:03;;;;;;;17.38;7.65;;;-0.30;77.60;;;;;;5049564;28;20208;-76
2023/02/28 06:49:32;;;;;;;10.98;5.82;;;-0.30;77.60;;;;;;5050888;28;20238;-73
2023/02/28 06:51:58;;;;;;;14.40;7.18;;;-0.20;77.30;;;;;;5046254;28;20185;-73
2023/02/28 06:54:24;;;;;;;12.93;6.83;;;-0.30;77.10;;;;;;5050627;28;20199;-74
2023/02/28 06:56:50;;;;;;;17.17;7.70;;;-0.30;77.10;;;;;;5045485;28;20561;-75
2023/02/28 06:59:16;;;;;;;17.13;7.87;;;-0.20;77.30;;;;;;5048753;28;20208;-74
2023/02/28 07:01:42;;;;;;;14.35;7.03;;;-0.20;77.30;;;;;;5050188;28;20208;-73
2023/02/28 07:04:08;;;;;;;13.43;7.00;;;-0.10;77.10;;;;;;5048603;28;20624;-75
2023/02/28 07:06:34;;;;;;;17.63;8.23;;;-0.10;77.00;;;;;;5045446;28;20210;-76
2023/02/28 07:09:00;;;;;;;20.13;8.10;;;-0.20;76.80;;;;;;5047829;28;20421;-73
2023/02/28 07:11:27;;;;;;;28.50;8.30;;;-0.10;77.00;;;;;;5049882;28;20191;-74
2023/02/28 07:13:57;;;;;;;16.83;8.18;;;-0.10;77.00;;;;;;5027525;28;20816;-73
2023/02/28 07:16:24;;;;;;;14.90;7.93;;;0.00;76.70;;;;;;5044448;28;20273;-74
2023/02/28 07:18:51;;;;;;;18.27;8.75;;;0.00;76.70;;;;;;5046412;28;20204;-74
2023/02/28 07:21:17;;;;;;;18.52;9.30;;;0.10;76.50;;;;;;5029121;28;20180;-74
2023/02/28 07:23:43;;;;;;;19.60;8.97;;;0.10;76.20;;;;;;5051901;28;20189;-75
2023/02/28 07:26:16;;;;;;;17.07;8.53;;;0.20;76.20;;;;;;5049170;28;20286;-76
2023/02/28 07:28:43;;;;;;;15.32;8.40;;;0.20;75.50;;;;;;5033860;28;20435;-74
2023/02/28 07:31:10;;;;;;;17.90;8.57;;;0.20;75.20;;;;;;5049379;28;20528;-73
2023/02/28 07:33:36;;;;;;;17.67;8.35;;;0.30;74.80;;;;;;5047141;28;20185;-75
2023/02/28 07:36:04;;;;;;;17.17;8.35;;;0.30;74.80;;;;;;5026722;28;20239;-72
2023/02/28 07:38:29;;;;;;;16.83;8.80;;;0.30;74.60;;;;;;5043489;28;20284;-75
2023/02/28 07:40:55;;;;;;;15.53;8.53;;;0.40;74.90;;;;;;5044330;28;20790;-75
2023/02/28 07:43:20;;;;;;;18.90;8.73;;;0.50;74.60;;;;;;5047537;28;20184;-76
2023/02/28 07:45:46;;;;;;;14.83;8.60;;;0.60;74.50;;;;;;5030003;28;20294;-74
2023/02/28 07:48:11;;;;;;;15.07;8.20;;;0.50;73.70;;;;;;5049094;28;20519;-73
2023/02/28 07:50:37;;;;;;;17.90;9.13;;;0.50;74.00;;;;;;5048007;28;20242;-74
2023/02/28 07:53:04;;;;;;;24.77;9.40;;;0.50;74.20;;;;;;5048402;28;20861;-74
2023/02/28 07:55:30;;;;;;;20.83;8.85;;;0.50;74.20;;;;;;5045958;28;20177;-74
2023/02/28 07:57:57;;;;;;;21.23;9.17;;;0.50;73.70;;;;;;5041684;28;20208;-75
2023/02/28 08:00:23;;;;;;;14.80;8.65;;;0.50;73.70;;;;;;5045962;28;20184;-76
2023/02/28 08:02:49;;;;;;;17.70;9.70;;;0.50;73.90;;;;;;5043661;28;20300;-74
2023/02/28 08:05:15;;;;;;;16.30;8.83;;;0.50;73.50;;;;;;5050000;28;20191;-72
2023/02/28 08:07:40;;;;;;;16.67;9.50;;;0.50;73.60;;;;;;5027460;28;20581;-75
2023/02/28 08:10:08;;;;;;;19.73;8.90;;;0.60;73.50;;;;;;5052870;28;20196;-74
2023/02/28 08:12:34;;;;;;;19.67;9.50;;;0.60;73.20;;;;;;5024386;28;20220;-74
2023/02/28 08:14:59;;;;;;;23.03;9.30;;;0.60;73.20;;;;;;5044670;28;20207;-75
2023/02/28 08:17:25;;;;;;;25.50;8.80;;;0.60;73.00;;;;;;5041292;28;20216;-75
2023/02/28 08:19:50;;;;;;;17.20;8.43;;;0.60;73.00;;;;;;5045105;28;21027;-76
2023/02/28 08:22:16;;;;;;;14.83;8.93;;;0.60;73.20;;;;;;5049538;28;20184;-74
2023/02/28 08:24:43;;;;;;;16.20;8.50;;;0.60;73.00;;;;;;5051619;28;20181;-73
2023/02/28 08:27:09;;;;;;;19.42;9.98;;;0.60;73.00;;;;;;5055967;28;20232;-74
2023/02/28 08:29:37;;;;;;;15.10;8.35;;;0.60;73.20;;;;;;5058183;28;20189;-74
2023/02/28 08:32:03;;;;;;;18.88;9.25;;;0.60;72.90;;;;;;5051205;28;20188;-75
2023/02/28 08:34:28;;;;;;;15.33;8.20;;;0.60;72.90;;;;;;5036191;28;20207;-74
2023/02/28 08:36:55;;;;;;;18.75;9.45;;;0.60;72.90;;;;;;5046307;28;20282;-74
2023/02/28 08:39:21;;;;;;;18.13;9.73;;;0.70;72.70;;;;;;5050981;28;20675;-74
2023/02/28 08:41:46;;;;;;;18.80;8.93;;;0.70;72.90;;;;;;5043239;28;20383;-74
2023/02/28 08:44:12;;;;;;;16.40;9.63;;;0.80;72.70;;;;;;5049016;28;20596;-74
2023/02/28 08:46:38;;;;;;;15.47;9.70;;;0.80;72.40;;;;;;5043046;28;20216;-74
2023/02/28 08:49:04;;;;;;;18.00;8.68;;;0.80;72.40;;;;;;5048033;28;20195;-74
2023/02/28 08:51:30;;;;;;;18.47;9.60;;;0.90;72.40;;;;;;5043488;28;20181;-73
2023/02/28 08:53:59;;;;;;;19.73;9.47;;;0.90;72.10;;;;;;5046683;28;20238;-73
2023/02/28 08:56:26;;;;;;;16.80;9.70;;;0.80;72.30;;;;;;5043154;28;20890;-73
2023/02/28 08:58:55;;;;;;;17.35;9.50;;;0.90;72.40;;;;;;5039855;28;20188;-75
2023/02/28 09:01:28;;;;;;;17.77;9.35;;;0.90;72.30;;;;;;5041245;28;20216;-74
2023/02/28 09:03:54;;;;;;;19.13;10.05;;;0.80;72.10;;;;;;5021572;28;20177;-74
2023/02/28 09:06:23;;;;;;;16.00;8.52;;;0.90;72.40;;;;;;5046989;28;20287;-74
2023/02/28 09:08:49;;;;;;;16.40;9.52;;;0.90;72.10;;;;;;5048340;28;20739;-75
2023/02/28 09:11:15;;;;;;;17.70;9.40;;;0.90;72.30;;;;;;5044704;28;20556;-74
2023/02/28 09:13:40;;;;;;;22.03;10.73;;;1.00;72.30;;;;;;5048810;28;20188;-74
2023/02/28 09:16:08;;;;;;;24.13;10.53;;;1.00;72.00;;;;;;5039988;28;20213;-75
2023/02/28 09:18:38;;;;;;;19.65;9.30;;;1.00;71.60;;;;;;5045538;28;20212;-73
2023/02/28 09:21:09;;;;;;;18.92;9.60;;;1.00;71.60;;;;;;5048453;28;20934;-74
2023/02/28 09:23:37;;;;;;;25.13;9.98;;;0.90;72.00;;;;;;5034176;28;20246;-74
2023/02/28 09:26:03;;;;;;;18.70;9.98;;;1.00;71.80;;;;;;5031587;28;20196;-74
2023/02/28 09:28:29;;;;;;;17.83;10.07;;;1.10;71.80;;;;;;5031990;28;20355;-76
2023/02/28 09:30:57;;;;;;;16.77;9.40;;;1.10;71.70;;;;;;5050455;28;20268;-74
2023/02/28 09:33:23;;;;;;;17.08;9.68;;;1.20;71.70;;;;;;5048774;28;20188;-74
2023/02/28 09:35:49;;;;;;;17.53;9.73;;;1.40;71.40;;;;;;5044826;28;20212;-75
2023/02/28 09:38:15;;;;;;;16.75;9.70;;;1.30;70.80;;;;;;5045851;28;20477;-75
2023/02/28 09:40:53;;;;;;;21.85;9.65;;;1.40;71.10;;;;;;5049884;28;20196;-74
2023/02/28 09:43:22;;;;;;;16.80;10.18;;;1.50;70.70;;;;;;5051995;28;20210;-74
2023/02/28 09:46:05;;;;;;;23.23;10.07;;;1.40;70.10;;;;;;5045507;28;20240;-75
2023/02/28 09:48:42;;;;;;;17.63;9.98;;;1.50;70.20;;;;;;5046208;28;20188;-75
2023/02/28 09:51:25;;;;;;;19.65;10.10;;;1.50;70.10;;;;;;5029655;28;20282;-74
2023/02/28 09:53:52;;;;;;;19.85;9.75;;;1.60;69.90;;;;;;5032641;28;20188;-74
2023/02/28 09:56:27;;;;;;;15.13;9.20;;;1.60;69.40;;;;;;5045582;28;20208;-75
2023/02/28 09:58:57;;;;;;;20.30;9.97;;;1.50;69.70;;;;;;5028507;28;20267;-75
2023/02/28 10:01:50;;;;;;;20.17;10.93;;;1.60;69.70;;;;;;5044187;28;20412;-74
2023/02/28 10:04:32;;;;;;;22.25;9.98;;;1.60;69.80;;;;;;5043560;28;20180;-74
2023/02/28 10:07:02;;;;;;;19.83;9.18;;;1.70;69.50;;;;;;5026107;28;20565;-75
2023/02/28 10:09:32;;;;;;;21.20;9.65;;;1.70;69.20;;;;;;5050509;28;20223;-74
2023/02/28 10:12:03;;;;;;;19.02;9.48;;;1.80;69.20;;;;;;5050742;28;20184;-74
2023/02/28 10:14:33;;;;;;;20.25;9.68;;;1.80;68.80;;;;;;5026938;28;20180;-75
2023/02/28 10:17:13;;;;;;;17.83;10.20;;;1.90;68.60;;;;;;5028089;28;20291;-75
2023/02/28 10:19:47;;;;;;;18.25;10.18;;;2.10;68.50;;;;;;5049124;28;20181;-74
2023/02/28 10:22:22;;;;;;;17.15;10.13;;;2.20;67.30;;;;;;5046780;28;20540;-75
2023/02/28 10:24:52;;;;;;;18.95;10.55;;;2.10;67.50;;;;;;5051554;28;20251;-75
2023/02/28 10:27:24;;;;;;;19.25;9.60;;;1.90;67.60;;;;;;5046063;28;20644;-74
2023/02/28 10:29:55;;;;;;;20.00;10.55;;;1.90;68.20;;;;;;5047142;28;20188;-74
2023/02/28 10:32:28;;;;;;;17.08;10.55;;;2.00;67.90;;;;;;5027891;28;20669;-74
2023/02/28 10:35:10;;;;;;;19.70;9.73;;;2.10;67.50;;;;;;5047214;28;20181;-75
2023/02/28 10:37:40;;;;;;;20.85;10.95;;;2.20;67.60;;;;;;5040033;28;20325;-75
2023/02/28 10:40:25;;;;;;;20.55;10.35;;;2.40;66.90;;;;;;5041768;28;20664;-74
2023/02/28 10:43:05;;;;;;;27.02;10.55;;;2.50;66.00;;;;;;5045140;28;20184;-74
2023/02/28 10:45:34;;;;;;;17.48;9.77;;;2.60;66.00;;;;;;5045405;28;20203;-74
2023/02/28 10:48:15;;;;;;;20.98;10.80;;;2.70;66.00;;;;;;5040642;28;20253;-74
2023/02/28 10:50:50;;;;;;;24.88;10.90;;;2.70;65.00;;;;;;5043771;28;20189;-75
2023/02/28 10:53:32;;;;;;;23.83;10.85;;;2.50;65.00;;;;;;5022954;28;20181;-75
2023/02/28 10:56:04;;;;;;;19.23;10.23;;;2.50;65.70;;;;;;5022904;28;20213;-74
2023/02/28 10:58:58;;;;;;;20.70;11.30;;;2.60;65.60;;;;;;5049214;28;20231;-74
2023/02/28 11:01:29;;;;;;;20.00;10.23;;;2.70;65.30;;;;;;5031750;28;20176;-73
2023/02/28 11:03:57;;;;;;;19.73;10.43;;;2.70;65.30;;;;;;5034036;28;20303;-74
2023/02/28 11:06:28;;;;;;;20.35;10.15;;;2.80;65.10;;;;;;5046039;28;20254;-75
2023/02/28 11:08:59;;;;;;;17.33;10.57;;;2.80;64.10;;;;;;5048705;28;20181;-77
2023/02/28 11:11:27;;;;;;;17.17;10.03;;;2.60;64.70;;;;;;5050554;28;20315;-75
2023/02/28 11:13:56;;;;;;;19.73;10.18;;;2.60;65.30;;;;;;5024267;28;20529;-75
2023/02/28 11:16:35;;;;;;;21.70;10.33;;;2.80;65.00;;;;;;5047617;28;20570;-74
2023/02/28 11:19:02;;;;;;;17.73;10.90;;;3.10;63.90;;;;;;5040286;28;20412;-75
2023/02/28 11:21:33;;;;;;;21.67;10.27;;;3.50;63.10;;;;;;5045881;28;20407;-75
2023/02/28 11:24:13;;;;;;;16.57;9.60;;;3.70;61.60;;;;;;5041877;28;20412;-74
2023/02/28 11:26:51;;;;;;;21.83;11.00;;;3.90;61.00;;;;;;5022481;28;21008;-75
2023/02/28 11:29:21;;;;;;;15.40;9.87;;;4.00;60.10;;;;;;5049001;28;20418;-76
2023/02/28 11:32:04;;;;;;;19.10;10.87;;;4.00;59.90;;;;;;5046511;28;20761;-76
2023/02/28 11:34:31;;;;;;;29.30;13.23;;;4.10;60.10;;;;;;5044243;28;20411;-73
2023/02/28 11:36:59;;;;;;;16.30;9.63;;;4.20;60.00;;;;;;5028106;28;20525;-77
2023/02/28 11:39:26;;;;;;;19.27;10.03;;;4.00;59.30;;;;;;5043159;28;21514;-74
2023/02/28 11:42:04;;;;;;;19.40;10.80;;;4.00;59.70;;;;;;5051005;28;20533;-76
2023/02/28 11:45:04;;;;;;;16.50;10.50;;;4.00;60.10;;;;;;5053584;28;20848;-75
2023/02/28 11:48:09;;;;;;;18.57;10.43;;;4.30;59.30;;;;;;5028585;28;20566;-75
2023/02/28 11:50:46;;;;;;;21.43;10.80;;;4.30;58.90;;;;;;4949539;29;21017;-75
2023/02/28 11:53:33;;;;;;;20.23;9.80;;;4.00;59.30;;;;;;4948460;28;20432;-75
2023/02/28 11:56:07;;;;;;;22.20;10.83;;;4.00;60.10;;;;;;4932130;29;20989;-75
2023/02/28 11:58:48;;;;;;;22.90;11.00;;;4.00;60.10;;;;;;4952653;29;20470;-75
2023/02/28 12:01:19;;;;;;;18.10;10.20;;;4.00;60.30;;;;;;4950829;29;20462;-73
2023/02/28 12:03:53;;;;;;;18.23;10.97;;;4.20;60.00;;;;;;4949909;29;20426;-72
2023/02/28 12:06:34;;;;;;;17.87;10.47;;;4.10;59.70;;;;;;4947109;28;20473;-72
2023/02/28 12:09:30;;;;;;;23.67;11.50;;;4.00;60.10;;;;;;4931215;29;20791;-74
2023/02/28 12:12:00;;;;;;;21.00;11.33;;;4.10;60.10;;;;;;4929477;29;20438;-74
2023/02/28 12:14:51;;;;;;;22.10;11.13;;;4.00;60.00;;;;;;4949336;28;20460;-72
2023/02/28 12:17:37;;;;;;;18.40;11.10;;;4.20;60.30;;;;;;4929240;29;20557;-72
2023/02/28 12:20:03;;;;;;;18.90;11.47;;;4.80;59.50;;;;;;4946286;29;20895;-74
2023/02/28 12:22:40;;;;;;;17.33;10.23;;;5.30;56.90;;;;;;4950360;29;20426;-74
2023/02/28 12:25:06;;;;;;;18.60;11.57;;;5.40;56.00;;;;;;5015890;28;20193;-74
2023/02/28 12:27:37;;;;;;;17.90;10.57;;;5.10;56.00;;;;;;5045737;28;20454;-73
2023/02/28 12:30:30;;;;;;;20.57;10.60;;;5.00;56.10;;;;;;5053951;28;20192;-72
2023/02/28 12:33:12;;;;;;;17.70;11.10;;;4.80;56.90;;;;;;5059568;28;20454;-74
2023/02/28 12:35:46;;;;;;;20.30;11.13;;;4.80;57.40;;;;;;5039421;28;20490;-74
2023/02/28 12:38:34;;;;;;;17.03;10.67;;;5.00;57.00;;;;;;5031334;28;20892;-74
2023/02/28 12:41:10;;;;;;;18.23;10.73;;;5.00;56.90;;;;;;5049252;28;20431;-73
2023/02/28 12:43:44;;;;;;;17.40;10.30;;;5.10;56.80;;;;;;5047405;28;20406;-74
2023/02/28 12:46:24;;;;;;;15.43;9.50;;;5.20;56.20;;;;;;5046929;28;20852;-75
2023/02/28 12:48:59;;;;;;;17.53;9.77;;;5.40;56.10;;;;;;5048636;28;20423;-72
2023/02/28 12:51:26;;;;;;;21.23;10.83;;;5.40;55.60;;;;;;5045130;28;20425;-72
2023/02/28 12:54:24;;;;;;;18.37;10.00;;;5.40;55.30;;;;;;5051779;28;20418;-72
2023/02/28 12:57:05;;;;;;;21.10;11.33;;;5.50;55.20;;;;;;5047228;28;20454;-74
2023/02/28 12:59:51;;;;;;;17.13;10.07;;;5.60;54.90;;;;;;5049442;28;20450;-72